Time;durP1;ratioP1;P1;durP2;ratioP2;P2;SDS_P1;SDS_P2;PMS_P1;PMS_P2;Temp;Humidity;BMP_temperature;BMP_pressure;BME280_temperature;BME280_humidity;BME280_pressure;Samples;Min_cycle;Max_cycle;Signal;HPM_P1;HPM_P2
2022/07/21 00:01:06;;;;;;;14.40;13.27;;;20.60;99.90;;;;;;5072635;28;20789;-50
2022/07/21 00:03:33;;;;;;;11.97;11.17;;;20.50;99.90;;;;;;5073796;28;20267;-50
2022/07/21 00:06:01;;;;;;;13.13;12.23;;;20.50;99.90;;;;;;5063807;28;20814;-50
2022/07/21 00:08:28;;;;;;;14.17;13.03;;;20.50;99.90;;;;;;5046657;28;20281;-50
2022/07/21 00:10:55;;;;;;;15.50;14.20;;;20.50;99.90;;;;;;5063185;28;20320;-50
2022/07/21 00:13:22;;;;;;;12.13;11.23;;;20.50;99.90;;;;;;5073086;28;20201;-50
2022/07/21 00:15:51;;;;;;;15.13;13.93;;;20.50;99.90;;;;;;5073575;28;20700;-50
2022/07/21 00:18:19;;;;;;;15.77;14.57;;;20.50;99.90;;;;;;5060521;28;20687;-50
2022/07/21 00:20:46;;;;;;;14.90;13.73;;;20.40;99.90;;;;;;5062654;28;20249;-50
2022/07/21 00:23:13;;;;;;;15.87;14.63;;;20.40;99.90;;;;;;5064500;28;20197;-50
2022/07/21 00:25:40;;;;;;;15.97;14.77;;;20.40;99.90;;;;;;5073388;28;20295;-50
2022/07/21 00:28:07;;;;;;;16.10;14.50;;;20.40;99.90;;;;;;5062287;28;20691;-50
2022/07/21 00:30:35;;;;;;;17.30;15.53;;;20.60;99.90;;;;;;5068273;28;20707;-50
2022/07/21 00:33:04;;;;;;;16.07;14.73;;;20.60;99.90;;;;;;5068471;28;20622;-50
2022/07/21 00:35:31;;;;;;;14.67;13.60;;;20.70;99.90;;;;;;5064811;28;20201;-50
2022/07/21 00:37:58;;;;;;;15.40;14.17;;;20.60;99.90;;;;;;5063709;28;20638;-50
2022/07/21 00:40:25;;;;;;;16.53;15.23;;;20.60;99.90;;;;;;5066937;28;20213;-50
2022/07/21 00:42:52;;;;;;;18.10;16.53;;;20.60;99.90;;;;;;5072387;28;20205;-50
2022/07/21 00:45:19;;;;;;;15.43;14.07;;;20.50;99.90;;;;;;5067748;28;20273;-50
2022/07/21 00:47:47;;;;;;;16.60;15.03;;;20.50;99.90;;;;;;5053695;28;20255;-50
2022/07/21 00:50:18;;;;;;;16.90;15.70;;;20.60;99.90;;;;;;5052617;28;20226;-50
2022/07/21 00:52:46;;;;;;;18.53;15.77;;;20.60;99.90;;;;;;5052344;28;20201;-50
2022/07/21 00:55:15;;;;;;;16.27;14.87;;;20.60;99.90;;;;;;5052894;28;20213;-50
2022/07/21 00:57:42;;;;;;;15.80;14.60;;;20.60;99.90;;;;;;5056879;28;20258;-50
2022/07/21 01:00:12;;;;;;;17.33;15.93;;;20.60;99.90;;;;;;5070812;22;20225;-53
2022/07/21 01:02:39;;;;;;;17.17;15.80;;;20.70;99.90;;;;;;5031644;28;20297;-53
2022/07/21 01:05:12;;;;;;;17.77;16.47;;;20.70;99.90;;;;;;5043149;28;20255;-53
2022/07/21 01:07:40;;;;;;;17.67;16.23;;;20.70;99.90;;;;;;5044510;28;20209;-53
2022/07/21 01:10:08;;;;;;;16.87;15.57;;;20.80;99.90;;;;;;5041938;28;20217;-53
2022/07/21 01:12:35;;;;;;;16.67;15.43;;;20.70;99.90;;;;;;5020119;28;20199;-53
2022/07/21 01:15:03;;;;;;;15.30;14.10;;;20.60;99.90;;;;;;5031060;28;20230;-53
2022/07/21 01:17:30;;;;;;;18.17;16.77;;;20.60;99.90;;;;;;5024072;28;20874;-53
2022/07/21 01:19:57;;;;;;;16.87;15.43;;;20.60;99.90;;;;;;5023660;28;20194;-53
2022/07/21 01:22:26;;;;;;;18.17;16.63;;;20.60;99.90;;;;;;5031224;28;20269;-53
2022/07/21 01:24:53;;;;;;;18.20;16.60;;;20.60;99.90;;;;;;5026015;28;20202;-53
2022/07/21 01:27:20;;;;;;;17.70;16.30;;;20.60;99.90;;;;;;5017858;28;20758;-53
2022/07/21 01:29:46;;;;;;;17.30;15.90;;;20.60;99.90;;;;;;5022067;28;20762;-53
2022/07/21 01:32:13;;;;;;;17.30;15.83;;;20.60;99.90;;;;;;5023448;28;20222;-53
2022/07/21 01:34:40;;;;;;;18.73;17.00;;;20.60;99.90;;;;;;5031801;28;20206;-53
2022/07/21 01:37:07;;;;;;;18.63;17.33;;;20.60;99.90;;;;;;5016371;28;20199;-53
2022/07/21 01:42:20;;;;;;;17.37;15.97;;;20.60;99.90;;;;;;5011118;28;20300;-53
2022/07/21 01:44:49;;;;;;;17.77;16.40;;;20.60;99.90;;;;;;5011950;28;20254;-53
2022/07/21 01:47:17;;;;;;;17.93;16.30;;;20.50;99.90;;;;;;5015127;28;20195;-53
2022/07/21 01:49:44;;;;;;;17.80;16.37;;;20.50;99.90;;;;;;5012834;28;20222;-53
2022/07/21 01:52:11;;;;;;;16.37;15.10;;;20.50;99.90;;;;;;5014680;28;20305;-53
2022/07/21 01:54:39;;;;;;;16.67;15.37;;;20.40;99.90;;;;;;5031291;28;20210;-54
2022/07/21 01:57:06;;;;;;;15.27;14.03;;;20.50;99.90;;;;;;5012898;28;20205;-53
2022/07/21 01:59:33;;;;;;;16.23;14.83;;;20.50;99.90;;;;;;5016615;28;20257;-53
2022/07/21 02:02:00;;;;;;;15.43;14.23;;;20.60;99.90;;;;;;5012742;28;20235;-53
2022/07/21 02:04:28;;;;;;;18.87;16.97;;;20.60;99.90;;;;;;5017131;28;20246;-53
2022/07/21 02:06:55;;;;;;;17.37;16.07;;;20.60;99.90;;;;;;5011187;28;20361;-53
2022/07/21 02:09:22;;;;;;;16.47;15.30;;;20.60;99.90;;;;;;5022728;28;20195;-53
2022/07/21 02:11:51;;;;;;;16.90;15.50;;;20.60;99.90;;;;;;5024218;28;20708;-53
2022/07/21 02:14:18;;;;;;;15.97;14.87;;;20.60;99.90;;;;;;5018760;28;20229;-53
2022/07/21 02:16:44;;;;;;;16.47;15.27;;;20.60;99.90;;;;;;5017018;28;20227;-53
2022/07/21 02:19:12;;;;;;;17.57;16.20;;;20.60;99.90;;;;;;5021766;28;20198;-53
2022/07/21 02:21:39;;;;;;;15.33;14.13;;;20.60;99.90;;;;;;5030511;28;20299;-53
2022/07/21 02:24:06;;;;;;;16.03;14.73;;;20.50;99.90;;;;;;5031073;28;20206;-53
2022/07/21 02:26:34;;;;;;;16.63;15.13;;;20.50;99.90;;;;;;5020797;28;20200;-53
2022/07/21 02:29:02;;;;;;;15.87;14.67;;;20.60;99.90;;;;;;5013288;28;20265;-53
2022/07/21 02:31:29;;;;;;;16.07;14.97;;;20.70;99.90;;;;;;5030162;28;20230;-53
2022/07/21 02:33:56;;;;;;;17.13;15.90;;;20.80;99.90;;;;;;5030777;28;20241;-53
2022/07/21 02:36:23;;;;;;;16.10;14.97;;;20.80;99.90;;;;;;5028923;28;20272;-53
2022/07/21 02:38:50;;;;;;;14.67;13.57;;;20.80;99.90;;;;;;5018720;28;20246;-53
2022/07/21 02:41:17;;;;;;;16.17;14.87;;;20.70;99.90;;;;;;5019344;28;20667;-53
2022/07/21 02:43:44;;;;;;;16.33;14.87;;;20.70;99.90;;;;;;5011202;28;20270;-53
2022/07/21 02:46:13;;;;;;;15.10;14.10;;;20.80;99.90;;;;;;5011072;28;20206;-53
2022/07/21 02:48:40;;;;;;;16.70;15.23;;;20.80;99.90;;;;;;5015771;28;20207;-53
2022/07/21 02:51:07;;;;;;;16.30;14.97;;;20.80;99.90;;;;;;5019675;28;20226;-53
2022/07/21 02:53:34;;;;;;;15.03;13.67;;;20.70;99.90;;;;;;5016902;28;20211;-53
2022/07/21 02:56:01;;;;;;;16.10;14.87;;;20.70;99.90;;;;;;5029637;28;20198;-53
2022/07/21 02:58:29;;;;;;;15.73;14.43;;;20.60;99.90;;;;;;5019847;28;20284;-54
2022/07/21 03:00:58;;;;;;;16.17;14.97;;;20.60;99.90;;;;;;5028477;28;20234;-54
2022/07/21 03:03:28;;;;;;;14.50;13.57;;;20.60;99.90;;;;;;5030198;28;20268;-53
2022/07/21 03:05:55;;;;;;;15.13;13.77;;;20.60;99.90;;;;;;5014983;28;20265;-53
2022/07/21 03:08:22;;;;;;;15.00;14.00;;;20.60;99.90;;;;;;5012544;28;20211;-53
2022/07/21 03:10:50;;;;;;;15.13;14.03;;;20.60;99.90;;;;;;5027777;28;20228;-53
2022/07/21 03:13:17;;;;;;;15.97;14.77;;;20.60;99.90;;;;;;5022173;28;20297;-53
2022/07/21 03:15:44;;;;;;;14.67;13.63;;;20.60;99.90;;;;;;5022300;28;20245;-53
2022/07/21 03:18:11;;;;;;;16.50;15.30;;;20.60;99.90;;;;;;5012008;28;20733;-53
2022/07/21 03:20:42;;;;;;;16.67;15.17;;;20.60;99.90;;;;;;5018073;28;20301;-53
2022/07/21 03:23:09;;;;;;;16.97;15.53;;;20.60;99.90;;;;;;5029738;28;20283;-54
2022/07/21 03:25:36;;;;;;;16.47;15.23;;;20.70;99.90;;;;;;5030493;28;20202;-53
2022/07/21 03:28:03;;;;;;;16.20;15.00;;;20.60;99.90;;;;;;5023476;28;20621;-54
2022/07/21 03:30:30;;;;;;;15.67;14.57;;;20.60;99.90;;;;;;5011454;28;20222;-53
2022/07/21 03:32:58;;;;;;;17.30;16.00;;;20.60;99.90;;;;;;5021373;28;20233;-53
2022/07/21 03:35:25;;;;;;;16.00;14.80;;;20.70;99.90;;;;;;5025569;28;20199;-53
2022/07/21 03:37:56;;;;;;;16.93;15.73;;;20.70;99.90;;;;;;5029776;28;20221;-52
2022/07/21 03:40:26;;;;;;;16.40;15.10;;;20.70;99.90;;;;;;5022381;28;20262;-53
2022/07/21 03:42:53;;;;;;;16.97;15.67;;;20.60;99.90;;;;;;5013774;28;20269;-53
2022/07/21 03:45:21;;;;;;;17.83;16.40;;;20.70;99.90;;;;;;5018928;28;20206;-53
2022/07/21 03:47:48;;;;;;;15.57;14.43;;;20.60;99.90;;;;;;5033669;28;20206;-53
2022/07/21 03:50:17;;;;;;;17.97;16.53;;;20.60;99.90;;;;;;5021740;28;20264;-53
2022/07/21 03:52:44;;;;;;;15.93;14.53;;;20.60;99.90;;;;;;5021163;28;20199;-53
2022/07/21 03:55:14;;;;;;;17.03;15.60;;;20.60;99.90;;;;;;4998256;28;20253;-53
2022/07/21 03:57:43;;;;;;;17.90;16.70;;;20.60;99.90;;;;;;5016176;28;20289;-53
2022/07/21 04:00:14;;;;;;;18.67;17.10;;;20.60;99.90;;;;;;5008545;28;20215;-53
2022/07/21 04:02:42;;;;;;;20.07;18.37;;;20.60;99.90;;;;;;5009036;28;20693;-53
2022/07/21 04:05:11;;;;;;;18.73;17.23;;;20.60;99.90;;;;;;5018781;28;20195;-53
2022/07/21 04:07:40;;;;;;;18.07;16.43;;;20.70;99.90;;;;;;5009360;28;20206;-52
2022/07/21 04:10:07;;;;;;;18.40;16.80;;;20.70;99.90;;;;;;5015723;28;20203;-53
2022/07/21 04:12:36;;;;;;;18.53;16.93;;;20.80;99.90;;;;;;5018397;28;20253;-52
2022/07/21 04:15:03;;;;;;;17.07;15.87;;;20.80;99.90;;;;;;5007298;28;20646;-53
2022/07/21 04:17:30;;;;;;;19.93;17.97;;;20.80;99.90;;;;;;5008939;28;20199;-53
2022/07/21 04:19:57;;;;;;;19.77;17.90;;;20.80;99.90;;;;;;5011631;28;20195;-53
2022/07/21 04:22:24;;;;;;;19.33;17.80;;;20.70;99.90;;;;;;5012535;28;20195;-53
2022/07/21 04:24:51;;;;;;;17.40;16.00;;;20.70;99.90;;;;;;5011990;28;20199;-53
2022/07/21 04:27:18;;;;;;;20.17;18.40;;;20.80;99.90;;;;;;5014046;28;20619;-53
2022/07/21 04:29:47;;;;;;;20.17;18.33;;;20.70;99.90;;;;;;5015378;28;20204;-53
2022/07/21 04:32:14;;;;;;;20.43;18.60;;;20.70;99.90;;;;;;5011886;28;20250;-52
2022/07/21 04:34:41;;;;;;;23.13;21.13;;;20.70;99.90;;;;;;5011737;28;20195;-53
2022/07/21 04:37:08;;;;;;;21.17;19.37;;;20.60;99.90;;;;;;5013372;28;20245;-53
2022/07/21 04:39:35;;;;;;;22.97;21.07;;;20.70;99.90;;;;;;5015589;28;20277;-53
2022/07/21 04:42:03;;;;;;;18.23;16.83;;;20.70;99.90;;;;;;5006320;28;20604;-53
2022/07/21 04:44:30;;;;;;;19.77;18.17;;;20.70;99.90;;;;;;5012715;28;20218;-53
2022/07/21 04:46:59;;;;;;;17.83;16.43;;;20.70;99.90;;;;;;5007544;28;20210;-53
2022/07/21 04:49:27;;;;;;;20.50;18.73;;;20.70;99.90;;;;;;5015234;28;20235;-52
2022/07/21 04:51:54;;;;;;;20.40;18.63;;;20.70;99.90;;;;;;5011490;28;20226;-53
2022/07/21 04:54:22;;;;;;;19.53;18.13;;;20.70;99.90;;;;;;5011832;28;20195;-53
2022/07/21 04:56:50;;;;;;;21.97;20.03;;;20.70;99.90;;;;;;5011371;28;20661;-53
2022/07/21 04:59:17;;;;;;;20.77;18.97;;;20.70;99.90;;;;;;5023044;28;20235;-53
2022/07/21 05:01:44;;;;;;;23.03;21.13;;;20.70;99.90;;;;;;5011875;28;20237;-53
2022/07/21 05:04:13;;;;;;;20.13;18.53;;;20.70;99.90;;;;;;5011117;28;20257;-52
2022/07/21 05:06:40;;;;;;;20.37;18.77;;;20.70;99.90;;;;;;5010465;28;20291;-53
2022/07/21 05:09:07;;;;;;;18.27;16.77;;;20.70;99.90;;;;;;5011856;28;20240;-52
2022/07/21 05:11:34;;;;;;;17.63;16.17;;;20.80;99.90;;;;;;5010361;28;20219;-53
2022/07/21 05:14:01;;;;;;;18.97;17.30;;;20.80;99.90;;;;;;5010932;28;20238;-53
2022/07/21 05:16:28;;;;;;;18.93;17.33;;;20.80;99.90;;;;;;5010470;28;20203;-53
2022/07/21 05:18:55;;;;;;;19.47;17.80;;;20.80;99.90;;;;;;5017984;28;20199;-53
2022/07/21 05:21:24;;;;;;;19.73;17.93;;;20.80;99.90;;;;;;5010119;28;20250;-53
2022/07/21 05:23:52;;;;;;;20.73;18.90;;;20.80;99.90;;;;;;5010196;28;20246;-52
2022/07/21 05:26:19;;;;;;;20.13;18.23;;;20.80;99.90;;;;;;5010225;28;20203;-52
2022/07/21 05:28:46;;;;;;;21.73;19.87;;;20.90;99.90;;;;;;5009253;28;20235;-53
2022/07/21 05:31:13;;;;;;;20.77;19.00;;;21.00;99.90;;;;;;5011804;28;20289;-52
2022/07/21 05:33:40;;;;;;;20.90;18.90;;;21.00;99.90;;;;;;5009221;28;20255;-53
2022/07/21 05:36:07;;;;;;;19.50;18.00;;;20.90;99.90;;;;;;5007878;28;20199;-53
2022/07/21 05:38:36;;;;;;;21.70;19.90;;;21.00;99.90;;;;;;5011264;28;20203;-52
2022/07/21 05:41:03;;;;;;;20.27;18.47;;;21.10;99.90;;;;;;5007220;28;20685;-52
2022/07/21 05:43:31;;;;;;;19.57;17.87;;;21.10;99.90;;;;;;5011168;28;20203;-52
2022/07/21 05:45:58;;;;;;;20.70;18.90;;;21.00;99.90;;;;;;5011162;28;20687;-53
2022/07/21 05:48:25;;;;;;;20.10;18.43;;;21.10;99.90;;;;;;5017286;28;20225;-52
2022/07/21 05:50:52;;;;;;;21.50;19.63;;;21.10;99.90;;;;;;5015371;28;20316;-53
2022/07/21 05:53:19;;;;;;;20.20;18.67;;;21.10;99.90;;;;;;5022397;28;20252;-53
2022/07/21 05:55:47;;;;;;;19.20;17.30;;;21.10;99.90;;;;;;5031345;28;20210;-52
2022/07/21 05:58:15;;;;;;;19.60;17.93;;;21.10;99.90;;;;;;5010668;28;20638;-52
2022/07/21 06:00:42;;;;;;;19.60;17.83;;;21.10;99.90;;;;;;5008858;28;20610;-53
2022/07/21 06:03:10;;;;;;;19.37;17.67;;;21.10;99.90;;;;;;5014505;28;20662;-52
2022/07/21 06:05:37;;;;;;;19.40;17.60;;;21.10;99.90;;;;;;5004524;28;20286;-53
2022/07/21 06:08:04;;;;;;;20.23;18.47;;;21.30;99.90;;;;;;5002497;28;20296;-52
2022/07/21 06:10:31;;;;;;;19.97;18.47;;;21.30;99.90;;;;;;5013844;28;20717;-53
2022/07/21 06:13:01;;;;;;;21.00;19.20;;;21.40;99.90;;;;;;5008112;28;20258;-53
2022/07/21 06:15:28;;;;;;;19.57;17.97;;;21.40;99.90;;;;;;5011095;28;20292;-53
2022/07/21 06:17:56;;;;;;;19.60;18.10;;;21.40;99.90;;;;;;5003982;28;20211;-53
2022/07/21 06:20:23;;;;;;;18.73;17.23;;;21.50;99.90;;;;;;5006331;28;20765;-52
2022/07/21 06:22:50;;;;;;;17.17;15.80;;;21.50;99.90;;;;;;5004533;28;20274;-53
2022/07/21 06:25:17;;;;;;;20.70;18.70;;;21.60;99.90;;;;;;5004201;28;20206;-53
2022/07/21 06:27:44;;;;;;;22.30;20.43;;;21.60;99.90;;;;;;5009496;28;20229;-53
2022/07/21 06:30:13;;;;;;;20.00;18.30;;;21.70;99.90;;;;;;5003348;28;20250;-52
2022/07/21 06:32:41;;;;;;;21.20;19.33;;;21.80;99.90;;;;;;5009582;28;20235;-52
2022/07/21 06:35:08;;;;;;;21.13;19.23;;;21.80;99.90;;;;;;5009968;28;20302;-52
2022/07/21 06:37:35;;;;;;;21.43;19.63;;;21.80;99.90;;;;;;5011042;28;20653;-53
2022/07/21 06:40:04;;;;;;;19.63;18.03;;;21.90;99.90;;;;;;5015481;28;20203;-53
2022/07/21 06:42:31;;;;;;;19.03;17.50;;;21.90;99.90;;;;;;5004562;28;20208;-53
2022/07/21 06:44:58;;;;;;;19.80;18.20;;;22.10;99.90;;;;;;4991523;28;20218;-52
2022/07/21 06:47:26;;;;;;;21.70;19.57;;;22.20;99.90;;;;;;5017277;28;20847;-52
2022/07/21 06:49:53;;;;;;;18.60;17.20;;;22.20;99.90;;;;;;5011707;28;20461;-52
2022/07/21 06:52:20;;;;;;;18.70;16.93;;;22.30;99.90;;;;;;5015371;28;20268;-52
2022/07/21 06:54:47;;;;;;;17.33;15.97;;;22.50;99.90;;;;;;5013860;28;20206;-52
2022/07/21 06:57:14;;;;;;;17.07;15.77;;;22.60;99.90;;;;;;5012745;28;20288;-53
2022/07/21 06:59:41;;;;;;;16.70;15.30;;;22.70;99.90;;;;;;5022096;28;20669;-52
2022/07/21 07:02:09;;;;;;;17.17;15.87;;;22.70;99.90;;;;;;5070794;22;20647;-51
2022/07/21 07:04:37;;;;;;;16.03;14.93;;;22.80;99.90;;;;;;5052104;28;20209;-50
2022/07/21 07:07:05;;;;;;;15.00;14.00;;;22.80;99.90;;;;;;5034328;28;20206;-51
2022/07/21 07:09:32;;;;;;;17.63;16.10;;;22.80;99.90;;;;;;5034787;28;20290;-51
2022/07/21 07:12:03;;;;;;;15.97;14.77;;;22.80;99.90;;;;;;5036711;28;20234;-51
2022/07/21 07:14:30;;;;;;;17.13;15.83;;;22.90;99.90;;;;;;5046184;28;20198;-50
2022/07/21 07:16:57;;;;;;;18.93;16.90;;;22.90;99.90;;;;;;5037841;28;20206;-50
2022/07/21 07:19:24;;;;;;;17.53;16.03;;;23.00;99.90;;;;;;5040582;28;20914;-51
2022/07/21 07:21:53;;;;;;;17.93;16.20;;;23.10;99.90;;;;;;5033392;28;20222;-50
2022/07/21 07:24:20;;;;;;;18.97;17.17;;;23.20;99.90;;;;;;5046223;28;20203;-52
2022/07/21 07:26:48;;;;;;;16.60;15.17;;;23.30;99.90;;;;;;5045260;28;20580;-50
2022/07/21 07:29:15;;;;;;;18.73;17.07;;;23.30;99.90;;;;;;5038305;28;20206;-50
2022/07/21 07:31:42;;;;;;;16.87;15.50;;;23.30;99.90;;;;;;5040773;28;20275;-51
2022/07/21 07:34:09;;;;;;;17.43;15.83;;;23.30;99.90;;;;;;5024990;28;20202;-51
2022/07/21 07:36:37;;;;;;;17.60;15.80;;;23.30;99.90;;;;;;5036450;28;20203;-50
2022/07/21 07:39:05;;;;;;;17.93;16.30;;;23.40;99.90;;;;;;5031473;28;20203;-50
2022/07/21 07:41:32;;;;;;;16.87;15.47;;;23.50;99.90;;;;;;5032819;28;20221;-50
2022/07/21 07:44:00;;;;;;;17.23;15.83;;;23.50;99.90;;;;;;5052047;28;20199;-50
2022/07/21 07:46:28;;;;;;;19.27;17.17;;;23.50;99.90;;;;;;5052054;28;20194;-50
2022/07/21 07:48:55;;;;;;;16.30;15.00;;;23.50;99.90;;;;;;5052269;28;20194;-50
2022/07/21 07:51:22;;;;;;;17.70;16.35;;;23.40;99.90;;;;;;5037328;28;20815;-51
2022/07/21 07:53:52;;;;;;;17.43;16.10;;;23.30;99.90;;;;;;5029776;28;20201;-51
2022/07/21 07:56:21;;;;;;;17.90;16.50;;;23.40;99.90;;;;;;5019760;28;20234;-51
2022/07/21 07:58:48;;;;;;;17.60;16.13;;;23.20;99.90;;;;;;5048540;28;20626;-50
2022/07/21 08:01:16;;;;;;;18.40;17.00;;;23.00;99.90;;;;;;5036853;28;20222;-50
2022/07/21 08:03:43;;;;;;;18.00;16.27;;;23.00;99.90;;;;;;5035798;28;20240;-50
2022/07/21 08:06:10;;;;;;;18.57;17.10;;;23.10;99.90;;;;;;5032620;28;20583;-50
2022/07/21 08:08:37;;;;;;;19.73;18.13;;;23.20;99.90;;;;;;5042844;28;20206;-50
2022/07/21 08:11:04;;;;;;;17.83;15.97;;;23.00;99.90;;;;;;5043452;28;20229;-50
2022/07/21 08:13:34;;;;;;;17.83;16.30;;;23.10;99.90;;;;;;5032186;28;20290;-51
2022/07/21 08:16:01;;;;;;;16.90;15.60;;;23.20;99.90;;;;;;5031272;28;20676;-51
2022/07/21 08:18:28;;;;;;;17.57;16.23;;;23.40;99.90;;;;;;5044895;28;20281;-51
2022/07/21 08:20:55;;;;;;;18.10;16.60;;;23.50;99.90;;;;;;5051966;28;20271;-50
2022/07/21 08:23:22;;;;;;;18.03;16.63;;;23.70;99.90;;;;;;5039683;28;20281;-50
2022/07/21 08:25:49;;;;;;;17.77;16.27;;;23.90;99.90;;;;;;5050412;28;20213;-51
2022/07/21 08:28:16;;;;;;;17.17;15.87;;;23.80;99.90;;;;;;5043033;28;20199;-51
2022/07/21 08:30:45;;;;;;;16.60;15.20;;;23.70;99.90;;;;;;5021709;28;20226;-51
2022/07/21 08:33:12;;;;;;;18.17;16.33;;;23.60;99.90;;;;;;5012969;28;20281;-51
2022/07/21 08:35:39;;;;;;;17.47;16.07;;;23.50;99.90;;;;;;5022689;28;20280;-50
2022/07/21 08:38:07;;;;;;;17.50;16.00;;;23.50;99.90;;;;;;5036361;28;20718;-50
2022/07/21 08:40:37;;;;;;;18.23;16.43;;;23.00;99.90;;;;;;5039459;28;20213;-50
2022/07/21 08:43:04;;;;;;;16.27;15.03;;;22.90;99.90;;;;;;5039351;28;21511;-50
2022/07/21 08:45:31;;;;;;;16.27;14.90;;;22.80;99.90;;;;;;5042810;28;20254;-50
2022/07/21 08:48:01;;;;;;;17.53;15.13;;;22.60;99.90;;;;;;5024323;28;20207;-50
2022/07/21 08:50:30;;;;;;;16.20;14.57;;;22.50;99.90;;;;;;5027892;28;20210;-50
2022/07/21 08:52:57;;;;;;;15.30;14.10;;;22.30;99.90;;;;;;5031219;28;20276;-50
2022/07/21 08:55:24;;;;;;;15.33;14.03;;;22.30;99.90;;;;;;5032610;28;20242;-51
2022/07/21 08:57:51;;;;;;;15.83;14.53;;;22.30;99.90;;;;;;5032879;28;20265;-50
2022/07/21 09:00:18;;;;;;;15.70;14.50;;;22.40;99.90;;;;;;5032156;28;20213;-50
2022/07/21 09:02:45;;;;;;;15.37;14.03;;;22.40;99.90;;;;;;5035082;28;20247;-49
2022/07/21 09:05:14;;;;;;;14.40;13.20;;;22.50;99.90;;;;;;5021035;28;20211;-50
2022/07/21 09:07:54;;;;;;;14.23;13.17;;;22.60;99.90;;;;;;5012925;28;20232;-49
2022/07/21 09:10:24;;;;;;;14.77;13.47;;;22.70;99.90;;;;;;5012930;28;20585;-49
2022/07/21 09:12:53;;;;;;;14.03;12.70;;;22.80;99.90;;;;;;5012138;28;20227;-49
2022/07/21 09:15:22;;;;;;;13.33;12.33;;;22.90;99.90;;;;;;5012897;28;20203;-49
2022/07/21 09:18:09;;;;;;;15.07;13.63;;;23.10;99.90;;;;;;5012740;28;20207;-49
2022/07/21 09:20:39;;;;;;;14.10;12.90;;;23.00;99.90;;;;;;5015569;28;20265;-50
2022/07/21 09:23:08;;;;;;;14.17;12.87;;;23.10;99.90;;;;;;5030985;28;20672;-49
2022/07/21 09:25:41;;;;;;;15.40;14.20;;;23.20;99.90;;;;;;5032503;28;20209;-50
2022/07/21 09:28:16;;;;;;;13.63;12.57;;;23.30;99.90;;;;;;5031999;28;20225;-49
2022/07/21 09:30:57;;;;;;;13.40;12.30;;;23.40;99.90;;;;;;5032485;28;20222;-50
2022/07/21 09:33:28;;;;;;;14.67;13.47;;;23.70;99.90;;;;;;5031819;28;20218;-50
2022/07/21 09:36:05;;;;;;;15.53;14.07;;;23.70;99.90;;;;;;5032359;28;20708;-50
2022/07/21 09:38:38;;;;;;;14.50;13.30;;;23.70;99.90;;;;;;5022766;28;20202;-51
2022/07/21 09:41:07;;;;;;;15.20;13.90;;;23.70;99.90;;;;;;5031620;28;20233;-51
2022/07/21 09:43:41;;;;;;;14.30;13.00;;;23.90;99.90;;;;;;5037804;28;20206;-50
2022/07/21 09:46:11;;;;;;;14.57;13.48;;;24.10;99.90;;;;;;5037547;28;20439;-51
2022/07/21 09:48:43;;;;;;;14.13;13.00;;;24.30;99.90;;;;;;5038093;28;20707;-50
2022/07/21 09:51:29;;;;;;;13.60;12.60;;;24.60;99.90;;;;;;5050696;28;20221;-51
2022/07/21 09:53:59;;;;;;;14.33;13.13;;;24.90;99.90;;;;;;5040378;28;20221;-50
2022/07/21 09:56:29;;;;;;;13.60;12.40;;;24.90;99.90;;;;;;5034255;28;20248;-50
2022/07/21 09:58:57;;;;;;;14.67;13.47;;;24.80;99.90;;;;;;5031571;28;20202;-50
2022/07/21 10:01:25;;;;;;;13.57;12.57;;;24.70;99.90;;;;;;5030592;28;20245;-50
2022/07/21 10:03:53;;;;;;;13.93;12.90;;;24.70;99.90;;;;;;5037764;28;20202;-50
2022/07/21 10:06:23;;;;;;;14.70;13.57;;;25.00;99.90;;;;;;5044851;28;20607;-50
2022/07/21 10:08:53;;;;;;;14.40;13.20;;;24.90;99.90;;;;;;5051387;28;20740;-51
2022/07/21 10:11:20;;;;;;;14.87;13.73;;;25.00;99.90;;;;;;5040638;28;20222;-51
2022/07/21 10:13:47;;;;;;;15.43;13.70;;;25.20;99.90;;;;;;5023142;28;20222;-51
2022/07/21 10:16:15;;;;;;;14.10;12.80;;;25.40;99.90;;;;;;5038819;28;20203;-51
2022/07/21 10:19:10;;;;;;;13.33;12.43;;;25.70;99.90;;;;;;5031529;28;20210;-51
2022/07/21 10:21:42;;;;;;;15.60;14.17;;;26.40;99.90;;;;;;5037239;28;20745;-51
2022/07/21 10:24:13;;;;;;;12.57;11.37;;;26.80;99.90;;;;;;5038485;28;20198;-51
2022/07/21 10:27:01;;;;;;;14.13;12.93;;;26.80;99.90;;;;;;5046807;28;20279;-52
2022/07/21 10:29:52;;;;;;;14.13;12.65;;;27.10;99.90;;;;;;5024245;28;20202;-52
2022/07/21 10:32:21;;;;;;;14.90;13.70;;;26.80;99.90;;;;;;5030497;28;20222;-51
2022/07/21 10:34:48;;;;;;;13.73;12.65;;;26.90;99.90;;;;;;5040243;28;20299;-52
2022/07/21 10:37:57;;;;;;;13.75;12.45;;;26.80;99.90;;;;;;5036456;28;20252;-52
2022/07/21 10:40:38;;;;;;;12.35;11.48;;;26.90;99.90;;;;;;5026924;28;20198;-51
2022/07/21 10:43:41;;;;;;;10.43;9.60;;;27.00;99.90;;;;;;5032835;28;20630;-51
2022/07/21 10:46:36;;;;;;;10.95;10.13;;;27.20;99.90;;;;;;5035277;28;20519;-51
2022/07/21 10:49:06;;;;;;;10.50;9.85;;;27.00;99.90;;;;;;5048680;28;20228;-51
2022/07/21 10:51:36;;;;;;;9.20;8.50;;;27.10;99.90;;;;;;5041803;28;20222;-52
2022/07/21 10:54:22;;;;;;;10.70;9.95;;;27.00;99.90;;;;;;5025629;28;20251;-51
2022/07/21 10:57:27;;;;;;;10.60;9.80;;;26.70;99.90;;;;;;5041341;28;20550;-51
2022/07/21 11:00:20;;;;;;;9.32;8.73;;;26.80;99.90;;;;;;5034020;28;20341;-52
2022/07/21 11:02:52;;;;;;;10.73;9.95;;;27.20;99.90;;;;;;5046133;28;20276;-52
2022/07/21 11:05:19;;;;;;;11.43;10.55;;;27.50;99.90;;;;;;5031125;28;20233;-52
2022/07/21 11:08:15;;;;;;;10.55;9.75;;;27.80;99.90;;;;;;5034259;28;20202;-52
2022/07/21 11:10:44;;;;;;;10.55;9.70;;;28.40;99.90;;;;;;5033977;28;20219;-51
2022/07/21 11:13:13;;;;;;;9.73;9.23;;;28.70;99.90;;;;;;5039714;28;20691;-51
2022/07/21 11:15:57;;;;;;;9.70;9.00;;;28.70;99.90;;;;;;5030202;28;20202;-51
2022/07/21 11:18:26;;;;;;;9.63;9.00;;;28.40;99.90;;;;;;5034080;28;20203;-51
2022/07/21 11:21:10;;;;;;;8.70;8.10;;;28.60;99.90;;;;;;5027680;28;20230;-51
2022/07/21 11:23:43;;;;;;;9.48;8.85;;;28.80;99.90;;;;;;5033890;28;20226;-51
2022/07/21 11:26:12;;;;;;;11.15;10.25;;;28.90;99.90;;;;;;5034018;28;20229;-50
2022/07/21 11:28:41;;;;;;;10.18;9.38;;;29.10;99.90;;;;;;5035775;28;20198;-51
2022/07/21 11:31:15;;;;;;;9.85;9.25;;;29.20;99.90;;;;;;5051889;28;20576;-52
2022/07/21 11:33:43;;;;;;;10.25;9.32;;;29.30;99.90;;;;;;5031126;28;20272;-51
2022/07/21 11:36:11;;;;;;;10.48;9.68;;;29.10;99.90;;;;;;5052829;28;20202;-50
2022/07/21 11:38:38;;;;;;;10.20;9.43;;;29.10;99.90;;;;;;5031077;28;20237;-51
2022/07/21 11:41:18;;;;;;;11.05;10.05;;;28.70;99.90;;;;;;5033384;28;20215;-51
2022/07/21 11:43:47;;;;;;;10.63;10.02;;;28.90;99.90;;;;;;5033421;28;20202;-52
2022/07/21 11:46:15;;;;;;;10.13;9.40;;;29.00;99.90;;;;;;5050083;28;20289;-51
2022/07/21 11:48:42;;;;;;;10.25;9.73;;;29.20;99.90;;;;;;5050969;28;20225;-51
2022/07/21 11:51:09;;;;;;;10.82;9.93;;;29.30;99.90;;;;;;5033233;28;20222;-52
2022/07/21 11:53:43;;;;;;;11.73;10.73;;;29.00;99.90;;;;;;5031286;28;20316;-51
2022/07/21 11:56:15;;;;;;;10.82;10.13;;;28.70;99.90;;;;;;5014815;28;20215;-51
2022/07/21 11:58:42;;;;;;;11.43;10.43;;;28.50;99.90;;;;;;5014386;28;20200;-51
2022/07/21 12:01:11;;;;;;;11.18;10.23;;;28.50;99.90;;;;;;5018949;28;20222;-51
2022/07/21 12:03:48;;;;;;;11.43;10.52;;;28.30;99.90;;;;;;5034171;28;20285;-51
2022/07/21 12:06:16;;;;;;;10.93;10.05;;;28.20;99.90;;;;;;5034103;28;20210;-51
2022/07/21 12:08:44;;;;;;;11.20;10.30;;;27.80;99.90;;;;;;5033896;28;20208;-52
2022/07/21 12:11:13;;;;;;;11.27;10.40;;;27.90;99.90;;;;;;5026052;28;20310;-52
2022/07/21 12:13:55;;;;;;;10.35;9.63;;;28.00;99.90;;;;;;5013983;28;20725;-51
2022/07/21 12:16:24;;;;;;;10.38;9.68;;;28.20;99.90;;;;;;5014164;28;20264;-52
2022/07/21 12:19:10;;;;;;;11.40;10.45;;;28.50;99.90;;;;;;5014029;28;20685;-51
2022/07/21 12:21:46;;;;;;;10.65;9.82;;;28.10;99.90;;;;;;5013418;28;20223;-51
2022/07/21 12:24:13;;;;;;;11.30;10.40;;;28.30;99.90;;;;;;5017918;28;20190;-51
2022/07/21 12:26:40;;;;;;;11.07;10.35;;;28.30;99.90;;;;;;5038911;28;20198;-51
2022/07/21 12:29:07;;;;;;;11.27;10.40;;;27.90;99.90;;;;;;5031832;28;20199;-50
2022/07/21 12:31:37;;;;;;;11.10;10.10;;;27.60;99.90;;;;;;5017264;28;20294;-51
2022/07/21 12:34:18;;;;;;;12.65;11.45;;;27.30;99.90;;;;;;5021678;28;20272;-50
2022/07/21 12:36:46;;;;;;;10.60;9.80;;;27.10;99.90;;;;;;5033045;28;20256;-50
2022/07/21 12:42:11;;;;;;;10.15;9.40;;;26.50;99.90;;;;;;5033055;28;20214;-49
2022/07/21 12:44:39;;;;;;;10.05;9.25;;;26.70;99.90;;;;;;5045614;28;20211;-49